Аэропорт: Аулие-Ата. Тараз

ICAO: UADD

METAR:
2018/05/20 19:00
UADD 201900Z 21003MPS 9999 NSC 10/02 Q1018 NOSIG RMK QFE707/0942
METAR:
2017/07/22 21:03
TAF UADD 222000Z 2221/2309 02005G10MPS 9999 NSC